Time;durP1;ratioP1;P1;durP2;ratioP2;P2;SDS_P1;SDS_P2;PMS_P1;PMS_P2;Temp;Humidity;BMP_temperature;BMP_pressure;BME280_temperature;BME280_humidity;BME280_pressure;Samples;Min_cycle;Max_cycle;Signal;HPM_P1;HPM_P2
2022/08/18 00:01:21;;;;;;;21.83;7.57;;;18.40;99.90;;;;;;5121160;27;20027;-70
2022/08/18 00:03:48;;;;;;;22.83;7.93;;;18.40;99.90;;;;;;5131465;27;20127;-69
2022/08/18 00:06:18;;;;;;;24.52;7.60;;;18.30;99.90;;;;;;5129500;27;21401;-68
2022/08/18 00:08:43;;;;;;;19.35;8.07;;;18.30;99.90;;;;;;5124744;27;20044;-70
2022/08/18 00:11:09;;;;;;;20.10;7.85;;;18.30;99.90;;;;;;5130669;27;20035;-71
2022/08/18 00:13:35;;;;;;;18.00;7.13;;;18.30;99.90;;;;;;5131090;27;20381;-69
2022/08/18 00:16:01;;;;;;;21.83;7.57;;;18.20;99.90;;;;;;5131503;27;20096;-71
2022/08/18 00:18:27;;;;;;;16.40;7.03;;;18.20;99.90;;;;;;5122425;27;20035;-68
2022/08/18 00:20:53;;;;;;;20.13;7.28;;;18.10;99.90;;;;;;5124804;27;20114;-71
2022/08/18 00:23:18;;;;;;;23.13;8.18;;;18.10;99.90;;;;;;5109837;27;20470;-71
2022/08/18 00:25:44;;;;;;;18.17;7.03;;;18.10;99.90;;;;;;5129213;27;20050;-69
2022/08/18 00:28:12;;;;;;;20.88;7.28;;;18.10;99.90;;;;;;5125406;27;20051;-68
2022/08/18 00:30:38;;;;;;;22.33;7.65;;;18.10;99.90;;;;;;5127924;27;20455;-70
2022/08/18 00:33:04;;;;;;;26.20;7.55;;;18.10;99.90;;;;;;5130697;27;20410;-68
2022/08/18 00:35:37;;;;;;;20.08;7.57;;;18.00;99.90;;;;;;5126877;27;20047;-69
2022/08/18 00:38:06;;;;;;;22.13;8.45;;;18.00;99.90;;;;;;5130237;27;20039;-68
2022/08/18 00:40:38;;;;;;;24.05;7.43;;;18.00;99.90;;;;;;5124426;27;20077;-67
2022/08/18 00:43:06;;;;;;;22.60;7.72;;;18.00;99.90;;;;;;5107638;27;20114;-67
2022/08/18 00:45:35;;;;;;;;;;;18.00;99.90;;;;;;5129402;27;20071;-68
2022/08/18 00:48:05;;;;;;;25.85;8.35;;;17.90;99.90;;;;;;5117821;28;19987;-68
2022/08/18 00:50:39;;;;;;;29.13;9.00;;;17.90;99.90;;;;;;5128178;28;20051;-68
2022/08/18 00:53:14;;;;;;;23.52;9.63;;;17.90;99.90;;;;;;5120387;27;20047;-68
2022/08/18 00:55:41;;;;;;;23.05;8.63;;;18.00;99.90;;;;;;5120576;27;20122;-68
2022/08/18 00:58:11;;;;;;;30.80;9.05;;;18.00;99.90;;;;;;5132644;27;20066;-67
2022/08/18 01:00:37;;;;;;;21.73;9.05;;;17.90;99.90;;;;;;5128269;27;20043;-68
2022/08/18 01:03:11;;;;;;;24.23;8.55;;;18.00;99.90;;;;;;5134875;27;20131;-68
2022/08/18 01:05:52;;;;;;;20.85;9.40;;;18.00;99.90;;;;;;5133822;27;20050;-68
2022/08/18 01:08:17;;;;;;;30.08;9.27;;;17.90;99.90;;;;;;5121987;27;20162;-68
2022/08/18 01:10:44;;;;;;;26.38;9.95;;;18.00;99.90;;;;;;5131842;27;20534;-67
2022/08/18 01:13:09;;;;;;;36.50;11.43;;;18.00;99.90;;;;;;5129356;27;20077;-67
2022/08/18 01:15:36;;;;;;;31.15;10.45;;;18.00;99.90;;;;;;5130976;27;20096;-68
2022/08/18 01:24:07;;;;;;;29.50;9.90;;;18.00;99.90;;;;;;5128138;27;20485;-67
2022/08/18 01:26:37;;;;;;;34.17;10.07;;;18.00;99.90;;;;;;5130638;27;20461;-68
2022/08/18 01:29:10;;;;;;;36.92;10.15;;;18.00;99.90;;;;;;5133727;27;20478;-68
2022/08/18 01:31:48;;;;;;;32.58;10.15;;;18.00;99.90;;;;;;5119370;27;20044;-67
2022/08/18 01:34:15;;;;;;;23.83;9.85;;;18.10;99.90;;;;;;5132795;27;20027;-67
2022/08/18 01:36:41;;;;;;;28.13;10.30;;;18.10;99.90;;;;;;5132402;27;20180;-67
2022/08/18 01:39:10;;;;;;;30.73;10.77;;;18.10;99.90;;;;;;5135579;27;20027;-68
2022/08/18 01:41:36;;;;;;;26.33;10.48;;;18.20;99.90;;;;;;5134334;27;20042;-68
2022/08/18 01:44:03;;;;;;;29.50;10.27;;;18.20;99.90;;;;;;5133150;27;20607;-68
2022/08/18 01:46:33;;;;;;;30.20;10.77;;;18.20;99.90;;;;;;5130496;27;20103;-67
2022/08/18 01:49:00;;;;;;;28.45;10.35;;;18.20;99.90;;;;;;5121680;27;20329;-68
2022/08/18 01:51:28;;;;;;;28.20;11.07;;;18.20;99.90;;;;;;5122369;27;20390;-68
2022/08/18 01:53:55;;;;;;;24.48;9.65;;;18.20;99.90;;;;;;5130370;27;20035;-68
2022/08/18 01:56:21;;;;;;;25.27;9.32;;;18.20;99.90;;;;;;5134020;27;20379;-68
2022/08/18 01:58:50;;;;;;;37.50;11.70;;;18.20;99.90;;;;;;5130954;27;20398;-68
2022/08/18 02:01:15;;;;;;;20.13;10.00;;;18.20;99.90;;;;;;5132292;27;20042;-68
2022/08/18 02:03:47;;;;;;;29.77;10.85;;;18.20;99.90;;;;;;5131198;27;20043;-68
2022/08/18 02:06:17;;;;;;;35.70;11.23;;;18.20;99.90;;;;;;5134789;27;20490;-68
2022/08/18 02:08:44;;;;;;;34.40;11.95;;;18.20;99.90;;;;;;5114856;27;20433;-68
2022/08/18 02:11:10;;;;;;;27.98;10.77;;;18.20;99.90;;;;;;5127095;27;20035;-67
2022/08/18 02:13:35;;;;;;;20.52;9.98;;;18.30;99.90;;;;;;5134169;27;20039;-67
2022/08/18 02:16:01;;;;;;;43.28;12.15;;;18.30;99.90;;;;;;5132282;27;20040;-68
2022/08/18 02:18:30;;;;;;;25.60;10.50;;;18.30;99.90;;;;;;5128752;27;20043;-68
2022/08/18 02:21:04;;;;;;;33.80;11.10;;;18.40;99.90;;;;;;5130211;27;20043;-68
2022/08/18 02:23:29;;;;;;;37.45;11.38;;;18.40;99.90;;;;;;5127195;27;20326;-69
2022/08/18 02:25:55;;;;;;;23.60;10.50;;;18.40;99.90;;;;;;5126419;27;20081;-66
2022/08/18 02:28:21;;;;;;;37.63;11.45;;;18.30;99.90;;;;;;5131110;27;20120;-67
2022/08/18 02:30:46;;;;;;;35.50;11.45;;;18.40;99.90;;;;;;5125292;27;20055;-68
2022/08/18 02:33:12;;;;;;;27.20;10.55;;;18.30;99.90;;;;;;5131175;27;20470;-68
2022/08/18 02:35:38;;;;;;;27.27;10.50;;;18.30;99.90;;;;;;5131328;27;20453;-67
2022/08/18 02:38:06;;;;;;;27.52;10.00;;;18.30;99.90;;;;;;5133277;27;20043;-67
2022/08/18 02:40:34;;;;;;;38.70;11.55;;;18.30;99.90;;;;;;5123593;27;20036;-68
2022/08/18 02:43:09;;;;;;;32.33;10.35;;;18.30;99.90;;;;;;5118921;27;20561;-67
2022/08/18 02:45:38;;;;;;;25.80;9.23;;;18.30;99.90;;;;;;5128267;27;20050;-67
2022/08/18 02:48:06;;;;;;;26.10;10.77;;;18.30;99.90;;;;;;5130623;27;20031;-67
2022/08/18 02:50:32;;;;;;;28.95;9.57;;;18.30;99.90;;;;;;5132791;27;20051;-67
2022/08/18 02:53:00;;;;;;;25.05;9.88;;;18.30;99.90;;;;;;5130483;27;20115;-68
2022/08/18 02:55:28;;;;;;;30.10;9.68;;;18.30;99.90;;;;;;5126338;27;20039;-68
2022/08/18 02:57:53;;;;;;;24.90;9.50;;;18.30;99.90;;;;;;5133872;27;20051;-66
2022/08/18 03:00:19;;;;;;;28.25;9.88;;;18.30;99.90;;;;;;5133483;27;20538;-67
2022/08/18 03:02:50;;;;;;;21.45;9.57;;;18.40;99.90;;;;;;5127830;27;20374;-67
2022/08/18 03:05:17;;;;;;;24.40;9.45;;;18.30;99.90;;;;;;5126231;27;20047;-68
2022/08/18 03:07:44;;;;;;;31.40;9.77;;;18.30;99.90;;;;;;5132318;27;20047;-68
2022/08/18 03:10:10;;;;;;;30.05;10.30;;;18.30;99.90;;;;;;5130696;27;20160;-68
2022/08/18 03:12:36;;;;;;;30.20;9.85;;;18.30;99.90;;;;;;5122488;27;20087;-67
2022/08/18 03:15:03;;;;;;;28.75;9.52;;;18.40;99.90;;;;;;5128886;27;20139;-67
2022/08/18 03:17:28;;;;;;;29.00;9.88;;;18.30;99.90;;;;;;5120805;27;20028;-68
2022/08/18 03:19:54;;;;;;;31.75;9.90;;;18.30;99.90;;;;;;5130296;27;20134;-68
2022/08/18 03:22:20;;;;;;;34.58;10.45;;;18.40;99.90;;;;;;5134577;27;20078;-68
2022/08/18 03:24:45;;;;;;;21.63;9.60;;;18.40;99.90;;;;;;5134117;27;20662;-68
2022/08/18 03:27:11;;;;;;;27.55;9.73;;;18.40;99.90;;;;;;5119892;27;20043;-68
2022/08/18 03:29:37;;;;;;;22.75;9.60;;;18.40;99.90;;;;;;5128351;27;20347;-68
2022/08/18 03:32:05;;;;;;;22.83;9.55;;;18.40;99.90;;;;;;5122060;27;20482;-68
2022/08/18 03:34:31;;;;;;;23.75;9.57;;;18.40;99.90;;;;;;5119039;27;20429;-68
2022/08/18 03:36:58;;;;;;;30.45;10.32;;;18.40;99.90;;;;;;5126973;27;20035;-68
2022/08/18 03:39:26;;;;;;;25.90;9.45;;;18.40;99.90;;;;;;5131067;27;20031;-69
2022/08/18 03:41:53;;;;;;;28.35;10.80;;;18.40;99.90;;;;;;5128957;27;20043;-69
2022/08/18 03:44:20;;;;;;;25.77;10.30;;;18.40;99.90;;;;;;5130847;27;20047;-68
2022/08/18 03:46:46;;;;;;;22.38;10.10;;;18.40;99.90;;;;;;5129131;27;20159;-68
2022/08/18 03:49:12;;;;;;;33.90;9.90;;;18.40;99.90;;;;;;5124834;27;20068;-69
2022/08/18 03:51:47;;;;;;;22.20;9.48;;;18.40;99.90;;;;;;5130454;27;20039;-68
2022/08/18 03:54:15;;;;;;;24.35;9.32;;;18.40;99.90;;;;;;5129881;27;20043;-68
2022/08/18 03:56:42;;;;;;;;;;;18.40;99.90;;;;;;5122593;27;20402;-68
2022/08/18 03:59:18;;;;;;;27.25;9.93;;;18.40;99.90;;;;;;5126055;27;19964;-67
2022/08/18 04:01:46;;;;;;;25.80;10.25;;;18.40;99.90;;;;;;5123547;27;20448;-66
2022/08/18 04:04:19;;;;;;;25.55;10.57;;;18.50;99.90;;;;;;5119661;27;20390;-67
2022/08/18 04:06:57;;;;;;;17.08;8.90;;;18.40;99.90;;;;;;5120268;27;20051;-67
2022/08/18 04:09:24;;;;;;;20.23;8.77;;;18.50;99.90;;;;;;5116413;27;20048;-67
2022/08/18 04:11:51;;;;;;;27.65;10.10;;;18.50;99.90;;;;;;5129638;27;20039;-67
2022/08/18 04:14:19;;;;;;;28.35;9.07;;;18.50;99.90;;;;;;5115832;27;20087;-67
2022/08/18 04:16:45;;;;;;;25.90;9.00;;;18.40;99.90;;;;;;5124297;27;20039;-67
2022/08/18 04:19:12;;;;;;;22.33;9.50;;;18.50;99.90;;;;;;5125822;27;20047;-67
2022/08/18 04:21:41;;;;;;;22.67;9.38;;;18.50;99.90;;;;;;5131248;27;20050;-68
2022/08/18 04:24:07;;;;;;;17.60;9.18;;;18.50;99.90;;;;;;5119252;27;20051;-68
2022/08/18 04:26:40;;;;;;;22.35;9.55;;;18.40;99.90;;;;;;5111854;27;20452;-69
2022/08/18 04:29:08;;;;;;;15.80;9.20;;;18.50;99.90;;;;;;5117864;27;20485;-68
2022/08/18 04:31:34;;;;;;;18.80;9.13;;;18.50;99.90;;;;;;5129356;27;20035;-68
2022/08/18 04:34:02;;;;;;;15.38;8.95;;;18.50;99.90;;;;;;5131549;27;20047;-69
2022/08/18 04:36:30;;;;;;;23.15;8.93;;;18.50;99.90;;;;;;5129878;27;20062;-68
2022/08/18 04:38:57;;;;;;;21.45;9.27;;;18.50;99.90;;;;;;5121299;27;20497;-68
2022/08/18 04:41:26;;;;;;;16.23;9.27;;;18.50;99.90;;;;;;5121585;27;20486;-69
2022/08/18 04:43:57;;;;;;;19.80;9.07;;;18.50;99.90;;;;;;5131087;27;20502;-68
2022/08/18 04:46:23;;;;;;;20.60;9.13;;;18.50;99.90;;;;;;5131406;28;20095;-68
2022/08/18 04:48:49;;;;;;;21.58;9.45;;;18.50;99.90;;;;;;5129388;28;20049;-68
2022/08/18 04:51:18;;;;;;;24.45;9.35;;;18.50;99.90;;;;;;5125683;27;20043;-69
2022/08/18 04:53:44;;;;;;;18.23;9.68;;;18.50;99.90;;;;;;5129308;28;20476;-68
2022/08/18 04:56:24;;;;;;;23.33;9.57;;;18.50;99.90;;;;;;5131833;27;20039;-68
2022/08/18 04:58:55;;;;;;;19.85;10.77;;;18.50;99.90;;;;;;5115827;28;20043;-68
2022/08/18 05:01:23;;;;;;;20.40;9.45;;;18.50;99.90;;;;;;5128831;28;20442;-68
2022/08/18 05:03:50;;;;;;;16.33;8.98;;;18.50;99.90;;;;;;5129854;28;20043;-68
2022/08/18 05:06:17;;;;;;;18.85;9.32;;;18.60;99.90;;;;;;5127472;28;20039;-68
2022/08/18 05:08:43;;;;;;;17.42;10.02;;;18.60;99.90;;;;;;5132848;27;20039;-68
2022/08/18 05:11:09;;;;;;;22.38;10.10;;;18.50;99.90;;;;;;5119284;28;20062;-68
2022/08/18 05:13:34;;;;;;;20.80;9.18;;;18.60;99.90;;;;;;5121972;28;20096;-68
2022/08/18 05:16:03;;;;;;;17.70;8.07;;;18.60;99.90;;;;;;5128832;27;20410;-68
2022/08/18 05:18:31;;;;;;;20.80;8.02;;;18.70;99.90;;;;;;5122775;28;20122;-69
2022/08/18 05:21:00;;;;;;;23.30;9.10;;;18.50;99.90;;;;;;5131610;27;20043;-69
2022/08/18 05:23:28;;;;;;;20.10;9.07;;;18.50;99.90;;;;;;5131940;27;20043;-68
2022/08/18 05:26:04;;;;;;;21.13;9.75;;;18.50;99.90;;;;;;5126353;27;20854;-69
2022/08/18 05:28:31;;;;;;;22.73;10.35;;;18.50;99.90;;;;;;5127385;28;20458;-68
2022/08/18 05:30:57;;;;;;;18.35;10.60;;;18.50;99.90;;;;;;5129098;27;20039;-70
2022/08/18 05:33:23;;;;;;;24.95;10.48;;;18.50;99.90;;;;;;5129275;28;20452;-68
2022/08/18 05:36:02;;;;;;;21.30;10.25;;;18.50;99.90;;;;;;5130720;27;20047;-68
2022/08/18 05:38:52;;;;;;;27.88;10.65;;;18.60;99.90;;;;;;5133979;27;20043;-68
2022/08/18 05:41:28;;;;;;;18.50;9.80;;;18.50;99.90;;;;;;5126753;27;20050;-68
2022/08/18 05:43:56;;;;;;;22.77;9.50;;;18.50;99.90;;;;;;5134743;27;20371;-68
2022/08/18 05:46:33;;;;;;;19.30;9.40;;;18.60;99.90;;;;;;5100645;28;20138;-69
2022/08/18 05:48:59;;;;;;;28.33;10.27;;;18.60;99.90;;;;;;5122382;27;20043;-69
2022/08/18 05:51:43;;;;;;;23.05;9.75;;;18.60;99.90;;;;;;5133871;27;20039;-69
2022/08/18 05:57:04;;;;;;;20.10;8.23;;;18.70;99.90;;;;;;5128267;27;20142;-68
2022/08/18 05:59:37;;;;;;;22.15;8.93;;;18.70;99.90;;;;;;5123324;27;20085;-68
2022/08/18 06:02:16;;;;;;;22.23;8.77;;;18.70;99.90;;;;;;5122288;27;20093;-69
2022/08/18 06:04:54;;;;;;;18.95;7.93;;;18.80;99.90;;;;;;5130489;27;20095;-68
2022/08/18 06:07:35;;;;;;;16.30;7.80;;;19.00;99.90;;;;;;5132762;27;20031;-69
2022/08/18 06:10:04;;;;;;;23.95;7.68;;;18.90;99.90;;;;;;5113685;27;20509;-69
2022/08/18 06:12:36;;;;;;;22.65;8.43;;;19.00;99.90;;;;;;5116326;27;20114;-70
2022/08/18 06:15:13;;;;;;;18.30;8.65;;;19.10;99.90;;;;;;5131884;27;20043;-68
2022/08/18 06:18:01;;;;;;;20.70;8.68;;;19.10;99.90;;;;;;5130337;27;20043;-69
2022/08/18 06:20:27;;;;;;;22.35;8.77;;;19.10;99.90;;;;;;5132533;27;20587;-68
2022/08/18 06:23:08;;;;;;;24.02;8.55;;;19.10;99.90;;;;;;5132806;27;20089;-67
2022/08/18 06:25:44;;;;;;;15.02;8.38;;;19.10;99.90;;;;;;5132839;27;20051;-68
2022/08/18 06:28:15;;;;;;;23.80;8.20;;;19.10;99.90;;;;;;5129199;27;20043;-68
2022/08/18 06:30:40;;;;;;;22.50;7.70;;;19.00;99.90;;;;;;5126845;27;20031;-68
2022/08/18 06:33:19;;;;;;;22.30;7.15;;;19.00;99.90;;;;;;5134053;27;20074;-68
2022/08/18 06:35:49;;;;;;;22.77;6.43;;;19.10;99.90;;;;;;5119829;27;20066;-69
2022/08/18 06:38:39;;;;;;;22.98;6.22;;;19.00;99.90;;;;;;5133624;27;20039;-70
2022/08/18 06:41:18;;;;;;;20.42;6.03;;;19.00;99.90;;;;;;5127926;27;20047;-71
2022/08/18 06:44:11;;;;;;;18.75;5.28;;;19.00;99.90;;;;;;5131827;27;20031;-71
2022/08/18 06:46:46;;;;;;;27.48;6.20;;;19.00;99.90;;;;;;5100982;27;20099;-67
2022/08/18 06:49:26;;;;;;;17.33;5.20;;;19.00;99.90;;;;;;5131824;27;20045;-69
2022/08/18 06:51:52;;;;;;;35.28;6.47;;;19.00;99.90;;;;;;5131044;27;20457;-69
2022/08/18 06:54:20;;;;;;;15.93;5.25;;;18.90;99.90;;;;;;5134063;27;20043;-72
2022/08/18 06:56:52;;;;;;;19.17;5.53;;;19.00;99.90;;;;;;5103674;27;20525;-71
2022/08/18 06:59:20;;;;;;;15.48;5.03;;;19.00;99.90;;;;;;5132793;27;20039;-72
2022/08/18 07:01:49;;;;;;;20.95;5.75;;;19.00;99.90;;;;;;5127907;27;20541;-72
2022/08/18 07:04:36;;;;;;;22.23;5.32;;;19.00;99.90;;;;;;5121092;27;20039;-69
2022/08/18 07:07:35;;;;;;;18.35;5.50;;;18.90;99.90;;;;;;5126240;27;20601;-68
2022/08/18 07:10:03;;;;;;;19.42;5.65;;;18.90;99.90;;;;;;5124484;27;20035;-68
2022/08/18 07:12:29;;;;;;;20.88;5.45;;;18.80;99.90;;;;;;5125414;27;20043;-71
2022/08/18 07:15:00;;;;;;;21.83;5.47;;;18.80;99.90;;;;;;5121853;27;20047;-69
2022/08/18 07:17:33;;;;;;;23.02;5.78;;;18.80;99.90;;;;;;5129171;27;20039;-70
2022/08/18 07:20:19;;;;;;;22.00;5.70;;;18.70;99.90;;;;;;5121460;27;20120;-69
2022/08/18 07:22:59;;;;;;;20.75;6.03;;;18.70;99.90;;;;;;5119586;27;20055;-67
2022/08/18 07:25:36;;;;;;;25.98;5.53;;;18.70;99.90;;;;;;5127338;27;20043;-67
2022/08/18 07:28:02;;;;;;;22.35;5.53;;;18.70;99.90;;;;;;5126893;27;20043;-68
2022/08/18 07:30:35;;;;;;;17.27;4.97;;;18.70;99.90;;;;;;5120438;27;20066;-69
2022/08/18 07:33:03;;;;;;;17.95;4.75;;;18.70;99.90;;;;;;5130406;27;20039;-71
2022/08/18 07:36:04;;;;;;;23.15;5.00;;;18.70;99.90;;;;;;5132015;27;20068;-68
2022/08/18 07:38:33;;;;;;;14.98;5.45;;;18.70;99.90;;;;;;5107988;27;20134;-68
2022/08/18 07:41:14;;;;;;;14.43;4.28;;;18.70;99.90;;;;;;5129566;27;20042;-72
2022/08/18 07:44:18;;;;;;;11.95;4.97;;;18.80;99.90;;;;;;5127417;27;20039;-71
2022/08/18 07:46:49;;;;;;;13.60;4.35;;;18.80;99.90;;;;;;5127116;27;20096;-68
2022/08/18 07:49:22;;;;;;;11.35;4.43;;;18.80;99.90;;;;;;5126013;27;20050;-71
2022/08/18 07:52:11;;;;;;;14.13;4.82;;;18.90;99.90;;;;;;5126926;27;20362;-69
2022/08/18 07:55:04;;;;;;;12.40;4.07;;;18.90;99.90;;;;;;5120332;27;20131;-71
2022/08/18 07:57:32;;;;;;;20.75;4.80;;;18.90;99.90;;;;;;5130933;27;20054;-71
2022/08/18 08:00:16;;;;;;;15.90;4.10;;;18.90;99.90;;;;;;5123202;27;20047;-69
2022/08/18 08:02:48;;;;;;;10.20;3.97;;;19.00;99.90;;;;;;5125490;27;20387;-69
2022/08/18 08:05:34;;;;;;;14.57;3.92;;;19.00;99.90;;;;;;5121631;27;20044;-69
2022/08/18 08:08:24;;;;;;;8.52;3.53;;;19.00;99.90;;;;;;5130081;27;20464;-68
2022/08/18 08:11:19;;;;;;;11.05;3.83;;;19.10;99.90;;;;;;5126880;27;20111;-70
2022/08/18 08:13:56;;;;;;;11.90;3.65;;;19.10;99.90;;;;;;5121104;27;20044;-68
2022/08/18 08:16:44;;;;;;;9.98;3.05;;;19.20;99.90;;;;;;5122939;27;20043;-70
2022/08/18 08:19:13;;;;;;;4.43;2.70;;;19.10;99.90;;;;;;5132940;27;20039;-67
2022/08/18 08:22:11;;;;;;;7.95;2.83;;;19.20;99.90;;;;;;5125820;27;20039;-70
2022/08/18 08:24:47;;;;;;;13.45;2.83;;;19.10;99.90;;;;;;5122070;27;20449;-67
2022/08/18 08:27:31;;;;;;;8.52;2.97;;;19.10;99.90;;;;;;5127203;27;20047;-67
2022/08/18 08:30:04;;;;;;;6.95;2.90;;;19.20;99.90;;;;;;5131798;27;20039;-66
2022/08/18 08:32:36;;;;;;;5.97;2.85;;;19.10;99.90;;;;;;5130008;27;20043;-68
2022/08/18 08:35:16;;;;;;;6.80;2.80;;;19.20;99.90;;;;;;5124691;27;20084;-68
2022/08/18 08:37:49;;;;;;;15.15;3.70;;;19.20;99.90;;;;;;5111900;28;20039;-68
2022/08/18 08:40:20;;;;;;;8.77;3.08;;;19.20;99.90;;;;;;5116335;27;20035;-66
2022/08/18 08:42:52;;;;;;;6.70;2.47;;;19.20;99.90;;;;;;5133254;27;20458;-68
2022/08/18 08:45:27;;;;;;;8.85;2.85;;;19.20;99.90;;;;;;5130576;28;20043;-68
2022/08/18 08:48:22;;;;;;;8.07;3.00;;;19.30;99.90;;;;;;5132617;27;20035;-66
2022/08/18 08:51:02;;;;;;;10.32;3.00;;;19.30;99.90;;;;;;5118929;28;20043;-68
2022/08/18 08:53:52;;;;;;;10.70;3.05;;;19.30;99.90;;;;;;5132389;27;20397;-69
2022/08/18 08:56:20;;;;;;;5.25;2.45;;;19.30;99.90;;;;;;5129331;28;20043;-67
2022/08/18 08:59:02;;;;;;;8.38;2.63;;;19.30;99.90;;;;;;5127444;28;20039;-68
2022/08/18 09:02:07;;;;;;;7.50;3.00;;;19.30;99.90;;;;;;5121850;28;20050;-66
2022/08/18 09:04:33;;;;;;;11.10;3.70;;;19.30;99.90;;;;;;5112653;28;20088;-66
2022/08/18 09:07:15;;;;;;;7.65;2.75;;;19.30;99.90;;;;;;5132445;28;20141;-66
2022/08/18 09:10:08;;;;;;;5.63;2.47;;;19.40;99.90;;;;;;5111824;28;20054;-67
2022/08/18 09:13:02;;;;;;;15.80;3.20;;;19.40;99.90;;;;;;5113011;28;20059;-67
2022/08/18 09:15:30;;;;;;;9.10;2.50;;;19.50;99.90;;;;;;5124716;27;20054;-67
2022/08/18 09:18:14;;;;;;;9.75;2.75;;;19.50;99.90;;;;;;5135882;27;20050;-67
2022/08/18 09:21:17;;;;;;;8.75;2.95;;;19.50;99.90;;;;;;5122308;27;20049;-67
2022/08/18 09:23:52;;;;;;;13.30;3.20;;;19.50;99.90;;;;;;5124992;27;20043;-66
2022/08/18 09:26:53;;;;;;;6.25;2.90;;;19.50;99.90;;;;;;5135154;27;20051;-68
2022/08/18 09:29:44;;;;;;;12.52;3.20;;;19.40;99.90;;;;;;5119687;27;20050;-68
2022/08/18 09:32:19;;;;;;;8.05;2.70;;;19.40;99.90;;;;;;5127082;27;20031;-67
2022/08/18 09:34:56;;;;;;;9.68;2.83;;;19.40;99.90;;;;;;5132449;27;20405;-67
2022/08/18 09:41:30;;;;;;;10.30;2.55;;;19.50;99.90;;;;;;5133154;27;20496;-67
2022/08/18 09:44:08;;;;;;;8.27;2.58;;;19.80;99.90;;;;;;5134821;27;20050;-68
2022/08/18 09:46:43;;;;;;;5.57;2.17;;;20.10;99.90;;;;;;5128378;27;20084;-67
2022/08/18 09:49:24;;;;;;;8.10;2.70;;;20.30;99.90;;;;;;5136157;27;20043;-67
2022/08/18 09:51:59;;;;;;;8.02;2.17;;;20.40;99.90;;;;;;5127964;27;20043;-68
2022/08/18 09:54:32;;;;;;;9.82;2.30;;;20.50;99.90;;;;;;5134947;27;20042;-67
2022/08/18 09:57:17;;;;;;;10.07;2.60;;;20.50;99.90;;;;;;5118146;27;20443;-69
2022/08/18 09:59:46;;;;;;;11.88;3.13;;;20.40;99.90;;;;;;5116609;27;20557;-67
2022/08/18 10:02:32;;;;;;;6.53;2.33;;;20.40;99.90;;;;;;5135320;27;20051;-68
2022/08/18 10:05:19;;;;;;;6.65;2.70;;;20.60;99.90;;;;;;5135736;27;20531;-68
2022/08/18 10:07:47;;;;;;;5.15;2.17;;;20.80;99.90;;;;;;5134631;27;20478;-68
2022/08/18 10:10:22;;;;;;;5.43;2.25;;;21.00;99.90;;;;;;5134330;27;20050;-67
2022/08/18 10:13:25;;;;;;;10.52;2.22;;;21.00;99.90;;;;;;5135816;27;20601;-68
2022/08/18 10:16:15;;;;;;;6.90;2.10;;;20.90;99.90;;;;;;5133308;27;20043;-68
2022/08/18 10:18:41;;;;;;;8.07;2.20;;;20.70;99.90;;;;;;5125184;27;20043;-68
2022/08/18 10:21:09;;;;;;;6.93;2.00;;;20.80;99.90;;;;;;5128408;27;20179;-68
2022/08/18 10:23:48;;;;;;;5.03;2.10;;;20.70;99.90;;;;;;5130426;27;20130;-67
2022/08/18 10:26:29;;;;;;;11.20;2.35;;;20.60;99.90;;;;;;5122130;27;20051;-68
2022/08/18 10:28:54;;;;;;;7.05;2.20;;;20.50;99.90;;;;;;5134562;27;20497;-67
2022/08/18 10:31:20;;;;;;;7.43;2.70;;;20.40;99.90;;;;;;5134070;27;20176;-66
2022/08/18 10:34:08;;;;;;;5.93;2.10;;;20.30;99.90;;;;;;5132820;27;20051;-67
2022/08/18 10:36:42;;;;;;;4.85;2.33;;;20.20;99.90;;;;;;5134412;27;20039;-67
2022/08/18 10:39:42;;;;;;;7.82;2.55;;;20.30;99.90;;;;;;5131696;27;20427;-66
2022/08/18 10:42:21;;;;;;;6.85;2.42;;;20.30;99.90;;;;;;5122361;27;20481;-66
2022/08/18 10:44:48;;;;;;;9.07;2.90;;;20.20;99.90;;;;;;5135225;27;20454;-67
2022/08/18 10:47:27;;;;;;;8.50;2.30;;;20.20;99.90;;;;;;5134528;27;20043;-67
2022/08/18 10:49:53;;;;;;;8.52;2.97;;;20.20;99.90;;;;;;5134581;27;20099;-67
2022/08/18 10:52:43;;;;;;;5.80;2.50;;;20.20;99.90;;;;;;5135375;27;20047;-67
2022/08/18 10:55:20;;;;;;;4.22;2.30;;;20.10;99.90;;;;;;5134582;27;20089;-68
2022/08/18 10:58:21;;;;;;;7.82;2.47;;;20.00;99.90;;;;;;5134960;27;20086;-68
2022/08/18 11:01:13;;;;;;;5.90;2.55;;;20.00;99.90;;;;;;5133661;27;20043;-68
2022/08/18 11:04:09;;;;;;;6.45;2.40;;;20.10;99.90;;;;;;5101420;27;20051;-66
2022/08/18 11:06:46;;;;;;;9.38;2.92;;;20.00;99.90;;;;;;5114979;27;20083;-66
2022/08/18 11:09:12;;;;;;;6.25;2.70;;;20.00;99.90;;;;;;5114745;28;20035;-65
2022/08/18 11:11:42;;;;;;;7.60;2.72;;;20.00;99.90;;;;;;5114466;28;20067;-65
2022/08/18 11:14:22;;;;;;;7.13;2.63;;;20.00;99.90;;;;;;5130541;27;20085;-66
2022/08/18 11:17:19;;;;;;;7.15;2.78;;;19.90;99.90;;;;;;5133694;27;20050;-67
2022/08/18 11:19:45;;;;;;;8.70;2.70;;;20.00;99.90;;;;;;5129343;27;20075;-67
2022/08/18 11:22:34;;;;;;;5.70;2.55;;;20.00;99.90;;;;;;5129872;27;20510;-67
2022/08/18 11:25:02;;;;;;;7.50;2.92;;;20.10;99.90;;;;;;5126081;27;20100;-68
2022/08/18 11:27:34;;;;;;;5.35;2.20;;;20.20;99.90;;;;;;5133273;27;20053;-67
2022/08/18 11:30:03;;;;;;;7.30;2.33;;;20.30;99.90;;;;;;5133050;27;20051;-67
2022/08/18 11:32:38;;;;;;;6.10;2.60;;;20.20;99.90;;;;;;5133658;27;20043;-66
2022/08/18 11:35:06;;;;;;;5.18;2.15;;;20.20;99.90;;;;;;5134238;27;20054;-66
2022/08/18 11:37:40;;;;;;;7.07;2.70;;;20.30;99.90;;;;;;5134464;27;20039;-66
2022/08/18 11:40:25;;;;;;;6.07;2.70;;;20.40;99.90;;;;;;5134148;27;20043;-68
2022/08/18 11:43:01;;;;;;;5.05;2.38;;;20.50;99.90;;;;;;5120888;27;20035;-67
2022/08/18 11:45:35;;;;;;;10.82;3.60;;;20.60;99.90;;;;;;5131994;27;20039;-67
2022/08/18 11:48:26;;;;;;;7.63;2.58;;;20.70;99.90;;;;;;5113964;28;20394;-68
2022/08/18 11:50:55;;;;;;;8.48;2.42;;;20.90;99.90;;;;;;5113684;28;20071;-66
2022/08/18 11:53:42;;;;;;;4.90;2.50;;;21.10;99.90;;;;;;5126840;27;20046;-66
2022/08/18 11:56:19;;;;;;;4.45;2.10;;;21.40;99.90;;;;;;5134049;27;20102;-66
2022/08/18 11:58:48;;;;;;;8.48;2.10;;;21.70;99.90;;;;;;5133849;27;20122;-66
2022/08/18 12:01:37;;;;;;;8.70;2.42;;;21.90;99.90;;;;;;5133165;27;20039;-66
2022/08/18 12:04:12;;;;;;;5.85;2.53;;;21.80;99.90;;;;;;5133314;27;20389;-70
2022/08/18 12:06:59;;;;;;;10.75;3.00;;;21.70;99.90;;;;;;5132034;27;20075;-68
2022/08/18 12:09:36;;;;;;;6.30;2.58;;;21.70;99.90;;;;;;5125585;27;20459;-68
2022/08/18 12:12:04;;;;;;;7.22;2.30;;;21.70;99.90;;;;;;5133626;27;20050;-70
2022/08/18 12:14:48;;;;;;;6.38;2.03;;;21.60;99.90;;;;;;5115571;27;20405;-71
2022/08/18 12:17:14;;;;;;;7.53;2.40;;;21.50;99.90;;;;;;5132473;27;20047;-70
2022/08/18 12:19:40;;;;;;;4.93;2.00;;;21.30;99.90;;;;;;5133111;27;20122;-69
2022/08/18 12:22:17;;;;;;;6.65;2.15;;;21.30;99.90;;;;;;5133847;27;20393;-68
2022/08/18 12:24:44;;;;;;;3.83;2.05;;;21.20;99.90;;;;;;5133013;27;20039;-68
2022/08/18 12:27:14;;;;;;;6.45;2.05;;;21.50;99.90;;;;;;5131637;27;20047;-71
2022/08/18 12:29:40;;;;;;;5.05;2.15;;;21.70;99.90;;;;;;5122633;27;20043;-68
2022/08/18 12:32:06;;;;;;;4.72;2.15;;;21.70;99.90;;;;;;5130137;27;20039;-71
2022/08/18 12:34:32;;;;;;;9.73;2.33;;;21.60;99.90;;;;;;5131237;27;20039;-70
2022/08/18 12:37:01;;;;;;;3.85;1.92;;;21.50;99.90;;;;;;5133538;27;20043;-69
2022/08/18 12:39:28;;;;;;;6.40;2.55;;;21.40;99.90;;;;;;5132842;27;20043;-68
2022/08/18 12:41:55;;;;;;;6.43;1.95;;;21.50;99.90;;;;;;5133118;27;20558;-68
2022/08/18 12:44:21;;;;;;;4.63;2.10;;;21.70;99.90;;;;;;5118199;27;20398;-69
2022/08/18 12:46:47;;;;;;;2.67;2.00;;;22.10;99.90;;;;;;5117389;28;20039;-69
2022/08/18 12:49:16;;;;;;;5.18;2.35;;;22.40;99.90;;;;;;5116112;28;20159;-71
2022/08/18 12:51:42;;;;;;;8.07;2.42;;;22.60;99.90;;;;;;5132039;28;20043;-70
2022/08/18 12:54:08;;;;;;;6.35;2.45;;;22.60;99.90;;;;;;5131972;28;20050;-69
2022/08/18 12:56:34;;;;;;;6.05;2.30;;;22.40;99.90;;;;;;5132814;27;20043;-69
2022/08/18 12:59:02;;;;;;;4.85;2.40;;;22.50;99.90;;;;;;5133042;27;20118;-69
2022/08/18 13:01:28;;;;;;;6.07;2.53;;;22.70;99.90;;;;;;5132419;27;20375;-71
2022/08/18 13:03:54;;;;;;;2.83;1.88;;;23.00;99.90;;;;;;5131737;28;20092;-69
2022/08/18 13:06:23;;;;;;;5.10;1.80;;;23.30;99.90;;;;;;5132735;27;20043;-69
2022/08/18 13:08:51;;;;;;;4.22;1.75;;;23.70;99.90;;;;;;5131603;28;20490;-70
2022/08/18 13:11:17;;;;;;;4.70;1.77;;;24.00;99.90;;;;;;5130709;28;20130;-69
2022/08/18 13:13:44;;;;;;;4.15;2.05;;;23.60;99.90;;;;;;5132845;27;20394;-70
2022/08/18 13:16:12;;;;;;;3.70;1.80;;;23.30;99.90;;;;;;5131853;28;20054;-69
2022/08/18 13:18:42;;;;;;;4.80;1.95;;;23.00;99.90;;;;;;5125744;27;20039;-69
2022/08/18 13:21:11;;;;;;;5.22;2.05;;;22.90;99.90;;;;;;5112546;28;20410;-69